Time,TemperatureF,DewpointF,PressureIn,WindDirection,WindDirectionDegrees,WindSpeedMPH,WindSpeedGustMPH,Humidity,HourlyPrecipIn,Conditions,Clouds,dailyrainin,SoftwareType,DateUTC
2013-11-21 00:05:00,33.8,28.0,30.47,SSW,202,0.0,0.0,79,0.00,,,0.00,Wunderground v.1.15,2013-11-21 05:05:00,
2013-11-21 00:10:00,33.4,27.9,30.47,SSW,202,0.0,0.0,80,0.00,,,0.00,Wunderground v.1.15,2013-11-21 05:10:00,
2013-11-21 00:15:00,33.4,27.9,30.47,SSE,155,0.0,0.0,80,0.00,,,0.00,Wunderground v.1.15,2013-11-21 05:15:00,
2013-11-21 00:20:00,33.2,27.7,30.48,SW,216,0.0,0.0,80,0.00,,,0.00,Wunderground v.1.15,2013-11-21 05:20:00,
2013-11-21 00:25:00,33.1,27.9,30.48,ENE,71,0.0,0.0,81,0.00,,,0.00,Wunderground v.1.15,2013-11-21 05:25:00,
2013-11-21 00:30:00,32.9,27.7,30.48,ENE,71,0.0,0.0,81,0.00,,,0.00,Wunderground v.1.15,2013-11-21 05:30:00,
2013-11-21 00:40:00,32.6,27.7,30.48,ENE,71,0.0,0.0,82,0.00,,,0.00,Wunderground v.1.15,2013-11-21 05:40:00,
2013-11-21 00:45:00,32.4,27.5,30.48,ENE,71,0.0,0.0,82,0.00,,,0.00,Wunderground v.1.15,2013-11-21 05:45:00,
2013-11-21 00:50:00,32.1,27.2,30.48,NNW,340,0.0,0.0,82,0.00,,,0.00,Wunderground v.1.15,2013-11-21 05:50:00,
2013-11-21 00:55:00,32.0,27.4,30.47,NNW,340,0.0,0.0,83,0.00,,,0.00,Wunderground v.1.15,2013-11-21 05:55:00,
2013-11-21 01:00:00,31.9,27.3,30.48,NNW,340,0.0,0.0,83,0.00,,,0.00,Wunderground v.1.15,2013-11-21 06:00:00,
2013-11-21 01:05:00,31.7,27.1,30.48,WNW,298,0.0,0.0,83,0.00,,,0.00,Wunderground v.1.15,2013-11-21 06:05:00,
2013-11-21 01:10:00,31.6,27.3,30.48,WNW,298,0.0,0.0,84,0.00,,,0.00,Wunderground v.1.15,2013-11-21 06:10:00,
2013-11-21 01:15:00,31.5,27.2,30.48,WNW,298,0.0,0.0,84,0.00,,,0.00,Wunderground v.1.15,2013-11-21 06:15:00,
2013-11-21 01:25:00,31.2,27.2,30.48,WNW,298,0.0,1.0,85,0.00,,,0.00,Wunderground v.1.15,2013-11-21 06:25:00,
2013-11-21 01:30:00,31.3,27.3,30.48,NW,315,0.0,0.0,85,0.00,,,0.00,Wunderground v.1.15,2013-11-21 06:30:00,
2013-11-21 01:40:00,31.1,27.1,30.48,NE,56,0.0,0.0,85,0.00,,,0.00,Wunderground v.1.15,2013-11-21 06:40:00,
2013-11-21 01:45:00,31.0,27.0,30.48,NE,56,0.0,0.0,85,0.00,,,0.00,Wunderground v.1.15,2013-11-21 06:45:00,
2013-11-21 01:50:00,31.0,27.0,30.48,NE,56,0.0,0.0,85,0.00,,,0.00,Wunderground v.1.15,2013-11-21 06:50:00,
2013-11-21 01:55:00,31.0,27.3,30.48,NE,56,0.0,0.0,86,0.00,,,0.00,Wunderground v.1.15,2013-11-21 06:55:00,
2013-11-21 02:00:00,31.0,27.3,30.48,NE,56,0.0,0.0,86,0.00,,,0.00,Wunderground v.1.15,2013-11-21 07:00:00,
2013-11-21 02:10:00,30.8,27.1,30.48,SSW,206,0.0,1.0,86,0.00,,,0.00,Wunderground v.1.15,2013-11-21 07:10:00,
2013-11-21 02:15:00,31.0,27.3,30.49,SSW,206,0.0,1.0,86,0.00,,,0.00,Wunderground v.1.15,2013-11-21 07:15:00,
2013-11-21 02:25:00,30.9,27.2,30.49,SSW,206,0.0,0.0,86,0.00,,,0.00,Wunderground v.1.15,2013-11-21 07:25:00,
2013-11-21 02:30:00,30.8,27.1,30.49,SSW,206,0.0,0.0,86,0.00,,,0.00,Wunderground v.1.15,2013-11-21 07:30:00,
2013-11-21 02:35:00,30.7,27.0,30.49,SSW,206,0.0,0.0,86,0.00,,,0.00,Wunderground v.1.15,2013-11-21 07:35:00,
2013-11-21 02:40:00,30.7,27.3,30.49,SSW,206,0.0,0.0,87,0.00,,,0.00,Wunderground v.1.15,2013-11-21 07:40:00,
2013-11-21 02:50:00,30.7,27.3,30.49,SSW,206,0.0,0.0,87,0.00,,,0.00,Wunderground v.1.15,2013-11-21 07:50:00,
2013-11-21 02:55:00,30.6,27.2,30.49,SSW,206,0.0,0.0,87,0.00,,,0.00,Wunderground v.1.15,2013-11-21 07:55:00,
2013-11-21 03:00:00,30.5,27.1,30.49,SSW,206,0.0,0.0,87,0.00,,,0.00,Wunderground v.1.15,2013-11-21 08:00:00,
2013-11-21 03:10:00,30.3,26.9,30.49,SSW,206,0.0,0.0,87,0.00,,,0.00,Wunderground v.1.15,2013-11-21 08:10:00,
2013-11-21 03:15:00,30.4,27.0,30.49,SSW,206,0.0,0.0,87,0.00,,,0.00,Wunderground v.1.15,2013-11-21 08:15:00,
2013-11-21 03:20:00,30.3,26.9,30.49,SSW,206,0.0,0.0,87,0.00,,,0.00,Wunderground v.1.15,2013-11-21 08:20:00,
2013-11-21 03:25:00,30.3,27.2,30.48,SSW,206,0.0,0.0,88,0.00,,,0.00,Wunderground v.1.15,2013-11-21 08:25:00,
2013-11-21 03:30:00,30.2,27.1,30.48,SSW,206,0.0,0.0,88,0.00,,,0.00,Wunderground v.1.15,2013-11-21 08:30:00,
2013-11-21 03:40:00,30.1,27.0,30.48,SSW,206,0.0,0.0,88,0.00,,,0.00,Wunderground v.1.15,2013-11-21 08:40:00,
2013-11-21 03:45:00,30.0,26.9,30.48,SSW,206,0.0,0.0,88,0.00,,,0.00,Wunderground v.1.15,2013-11-21 08:45:00,
2013-11-21 03:55:00,29.9,26.8,30.48,SSW,206,0.0,0.0,88,0.00,,,0.00,Wunderground v.1.15,2013-11-21 08:55:00,
2013-11-21 04:00:00,30.0,26.9,30.48,SSW,206,0.0,0.0,88,0.00,,,0.00,Wunderground v.1.15,2013-11-21 09:00:00,
2013-11-21 04:10:00,30.2,27.3,30.49,SSW,206,0.0,0.0,89,0.00,,,0.00,Wunderground v.1.15,2013-11-21 09:10:00,
2013-11-21 04:15:00,30.2,27.3,30.49,SSW,206,0.0,0.0,89,0.00,,,0.00,Wunderground v.1.15,2013-11-21 09:15:00,
2013-11-21 04:25:00,30.0,27.2,30.49,SSW,206,0.0,0.0,89,0.00,,,0.00,Wunderground v.1.15,2013-11-21 09:25:00,
2013-11-21 04:30:00,29.9,26.8,30.48,SSW,206,0.0,0.0,88,0.00,,,0.00,Wunderground v.1.15,2013-11-21 09:30:00,
2013-11-21 04:40:00,29.6,26.8,30.48,SSW,206,0.0,0.0,89,0.00,,,0.00,Wunderground v.1.15,2013-11-21 09:40:00,
2013-11-21 04:50:00,29.4,26.6,30.48,SSW,206,0.0,0.0,89,0.00,,,0.00,Wunderground v.1.15,2013-11-21 09:50:00,
2013-11-21 04:55:00,29.4,26.6,30.48,SSW,206,0.0,0.0,89,0.00,,,0.00,Wunderground v.1.15,2013-11-21 09:55:00,
2013-11-21 05:00:00,29.4,26.6,30.49,SSW,206,0.0,0.0,89,0.00,,,0.00,Wunderground v.1.15,2013-11-21 10:00:00,
2013-11-21 05:05:00,29.3,26.5,30.49,SSW,206,0.0,0.0,89,0.00,,,0.00,Wunderground v.1.15,2013-11-21 10:05:00,
2013-11-21 05:10:00,29.2,26.4,30.50,SSW,206,0.0,0.0,89,0.00,,,0.00,Wunderground v.1.15,2013-11-21 10:10:00,
2013-11-21 05:15:00,29.1,26.3,30.50,SSW,206,0.0,0.0,89,0.00,,,0.00,Wunderground v.1.15,2013-11-21 10:15:00,
2013-11-21 05:25:00,29.0,26.4,30.50,SSW,206,0.0,0.0,90,0.00,,,0.00,Wunderground v.1.15,2013-11-21 10:25:00,
2013-11-21 05:30:00,28.9,26.3,30.50,SSW,206,0.0,0.0,90,0.00,,,0.00,Wunderground v.1.15,2013-11-21 10:30:00,
2013-11-21 05:40:00,28.8,26.2,30.51,SSW,206,0.0,0.0,90,0.00,,,0.00,Wunderground v.1.15,2013-11-21 10:40:00,
2013-11-21 05:45:00,28.8,26.2,30.51,SSW,206,0.0,0.0,90,0.00,,,0.00,Wunderground v.1.15,2013-11-21 10:45:00,
2013-11-21 05:55:00,28.7,26.1,30.51,SSW,206,0.0,0.0,90,0.00,,,0.00,Wunderground v.1.15,2013-11-21 10:55:00,
2013-11-21 06:00:00,28.5,25.9,30.51,SSW,206,0.0,0.0,90,0.00,,,0.00,Wunderground v.1.15,2013-11-21 11:00:00,
2013-11-21 06:10:00,28.3,25.7,30.51,SSW,206,0.0,0.0,90,0.00,,,0.00,Wunderground v.1.15,2013-11-21 11:10:00,
2013-11-21 06:15:00,28.3,25.7,30.51,SSW,206,0.0,0.0,90,0.00,,,0.00,Wunderground v.1.15,2013-11-21 11:15:00,
2013-11-21 06:25:00,28.2,25.6,30.51,SSW,206,0.0,0.0,90,0.00,,,0.00,Wunderground v.1.15,2013-11-21 11:25:00,
2013-11-21 06:30:00,28.3,25.7,30.51,SSW,206,0.0,0.0,90,0.00,,,0.00,Wunderground v.1.15,2013-11-21 11:30:00,
2013-11-21 06:40:00,28.2,25.9,30.51,SSW,206,0.0,0.0,91,0.00,,,0.00,Wunderground v.1.15,2013-11-21 11:40:00,
2013-11-21 06:50:00,28.2,25.9,30.52,SSW,206,0.0,0.0,91,0.00,,,0.00,Wunderground v.1.15,2013-11-21 11:50:00,
2013-11-21 06:55:00,28.2,25.9,30.52,SSW,206,0.0,0.0,91,0.00,,,0.00,Wunderground v.1.15,2013-11-21 11:55:00,
2013-11-21 07:00:00,28.2,25.9,30.52,SSW,206,0.0,0.0,91,0.00,,,0.00,Wunderground v.1.15,2013-11-21 12:00:00,
2013-11-21 07:10:00,28.2,25.9,30.52,SSW,206,0.0,0.0,91,0.00,,,0.00,Wunderground v.1.15,2013-11-21 12:10:00,
2013-11-21 07:15:00,28.2,25.9,30.52,SSW,206,0.0,0.0,91,0.00,,,0.00,Wunderground v.1.15,2013-11-21 12:15:00,
2013-11-21 07:25:00,28.1,25.8,30.53,SSW,206,0.0,0.0,91,0.00,,,0.00,Wunderground v.1.15,2013-11-21 12:25:00,
2013-11-21 07:30:00,28.1,25.8,30.53,SSW,206,0.0,0.0,91,0.00,,,0.00,Wunderground v.1.15,2013-11-21 12:30:00,
2013-11-21 07:40:00,28.1,25.8,30.53,SSW,206,0.0,0.0,91,0.00,,,0.00,Wunderground v.1.15,2013-11-21 12:40:00,
2013-11-21 07:45:00,28.3,26.0,30.53,SSW,206,0.0,0.0,91,0.00,,,0.00,Wunderground v.1.15,2013-11-21 12:45:00,
2013-11-21 07:50:00,28.5,26.2,30.53,SSW,206,0.0,0.0,91,0.00,,,0.00,Wunderground v.1.15,2013-11-21 12:50:00,
2013-11-21 07:55:00,28.6,26.3,30.53,SSW,206,0.0,0.0,91,0.00,,,0.00,Wunderground v.1.15,2013-11-21 12:55:00,
2013-11-21 08:00:00,28.7,26.4,30.53,SSW,206,0.0,0.0,91,0.00,,,0.00,Wunderground v.1.15,2013-11-21 13:00:00,
2013-11-21 08:10:00,29.1,26.8,30.53,SSW,206,0.0,0.0,91,0.00,,,0.00,Wunderground v.1.15,2013-11-21 13:10:00,
2013-11-21 08:15:00,29.4,27.1,30.53,SSW,206,0.0,0.0,91,0.00,,,0.00,Wunderground v.1.15,2013-11-21 13:15:00,
2013-11-21 08:20:00,29.8,27.5,30.53,SSW,206,0.0,0.0,91,0.00,,,0.00,Wunderground v.1.15,2013-11-21 13:20:00,
2013-11-21 08:25:00,30.2,27.9,30.53,SSW,206,0.0,0.0,91,0.00,,,0.00,Wunderground v.1.15,2013-11-21 13:25:00,
2013-11-21 08:30:00,30.7,28.4,30.53,SSW,206,0.0,0.0,91,0.00,,,0.00,Wunderground v.1.15,2013-11-21 13:30:00,
2013-11-21 08:40:00,32.4,30.1,30.53,SSW,207,0.0,0.0,91,0.00,,,0.00,Wunderground v.1.15,2013-11-21 13:40:00,
2013-11-21 08:45:00,33.4,31.1,30.53,SSW,207,0.0,0.0,91,0.00,,,0.00,Wunderground v.1.15,2013-11-21 13:45:00,
2013-11-21 08:55:00,35.0,32.6,30.53,SSW,207,0.0,0.0,91,0.00,,,0.00,Wunderground v.1.15,2013-11-21 13:55:00,
2013-11-21 09:00:00,35.8,33.2,30.54,SE,130,0.0,1.0,90,0.00,,,0.00,Wunderground v.1.15,2013-11-21 14:00:00,
2013-11-21 09:05:00,36.5,33.8,30.53,SE,130,0.0,1.0,90,0.00,,,0.00,Wunderground v.1.15,2013-11-21 14:05:00,
2013-11-21 09:10:00,37.1,34.2,30.53,SE,130,0.0,0.0,89,0.00,,,0.00,Wunderground v.1.15,2013-11-21 14:10:00,
2013-11-21 09:15:00,37.7,34.5,30.53,East,92,0.0,0.0,88,0.00,,,0.00,Wunderground v.1.15,2013-11-21 14:15:00,
2013-11-21 09:25:00,39.0,35.5,30.53,East,93,0.0,0.0,87,0.00,,,0.00,Wunderground v.1.15,2013-11-21 14:25:00,
2013-11-21 09:30:00,40.0,36.2,30.53,East,99,0.0,0.0,86,0.00,,,0.00,Wunderground v.1.15,2013-11-21 14:30:00,
2013-11-21 09:40:00,41.9,37.1,30.52,East,98,0.0,0.0,83,0.00,,,0.00,Wunderground v.1.15,2013-11-21 14:40:00,
2013-11-21 09:45:00,43.2,38.1,30.52,SSE,148,1.0,1.0,82,0.00,,,0.00,Wunderground v.1.15,2013-11-21 14:45:00,
2013-11-21 09:50:00,44.2,38.4,30.52,ESE,103,1.0,1.0,80,0.00,,,0.00,Wunderground v.1.15,2013-11-21 14:50:00,
2013-11-21 09:55:00,45.0,38.9,30.52,SSE,163,1.0,1.0,79,0.00,,,0.00,Wunderground v.1.15,2013-11-21 14:55:00,
2013-11-21 10:00:00,45.6,39.1,30.52,SE,134,1.0,4.0,78,0.00,,,0.00,Wunderground v.1.15,2013-11-21 15:00:00,
2013-11-21 10:10:00,46.5,39.3,30.52,SSW,209,1.0,1.0,76,0.00,,,0.00,Wunderground v.1.15,2013-11-21 15:10:00,
2013-11-21 10:20:00,47.1,39.9,30.51,SSW,208,0.0,0.0,76,0.00,,,0.00,Wunderground v.1.15,2013-11-21 15:20:00,
2013-11-21 10:25:00,47.2,39.7,30.51,SSW,194,1.0,1.0,75,0.00,,,0.00,Wunderground v.1.15,2013-11-21 15:25:00,
2013-11-21 10:30:00,47.5,40.3,30.51,SSW,194,0.0,0.0,76,0.00,,,0.00,Wunderground v.1.15,2013-11-21 15:30:00,
2013-11-21 10:40:00,48.3,40.7,30.51,SE,128,1.0,1.0,75,0.00,,,0.00,Wunderground v.1.15,2013-11-21 15:40:00,
2013-11-21 10:45:00,48.8,40.9,30.51,East,90,0.0,1.0,74,0.00,,,0.00,Wunderground v.1.15,2013-11-21 15:45:00,
2013-11-21 10:55:00,49.8,41.5,30.50,SSE,162,1.0,5.0,73,0.00,,,0.00,Wunderground v.1.15,2013-11-21 15:55:00,
2013-11-21 11:00:00,50.0,41.7,30.49,East,100,1.0,1.0,73,0.00,,,0.00,Wunderground v.1.15,2013-11-21 16:00:00,
2013-11-21 11:10:00,49.7,41.4,30.49,SSW,203,1.0,1.0,73,0.00,,,0.00,Wunderground v.1.15,2013-11-21 16:10:00,
2013-11-21 11:15:00,50.2,42.2,30.49,SSE,155,1.0,1.0,74,0.00,,,0.00,Wunderground v.1.15,2013-11-21 16:15:00,
2013-11-21 11:25:00,50.8,42.5,30.48,South,181,1.0,4.0,73,0.00,,,0.00,Wunderground v.1.15,2013-11-21 16:25:00,
2013-11-21 11:35:00,51.9,42.8,30.47,SSE,163,1.0,4.0,71,0.00,,,0.00,Wunderground v.1.15,2013-11-21 16:35:00,
2013-11-21 11:40:00,52.6,43.1,30.47,SSW,194,1.0,1.0,70,0.00,,,0.00,Wunderground v.1.15,2013-11-21 16:40:00,
2013-11-21 11:50:00,53.5,44.0,30.46,SE,143,1.0,1.0,70,0.00,,,0.00,Wunderground v.1.15,2013-11-21 16:50:00,
2013-11-21 11:55:00,53.8,44.2,30.46,South,175,1.0,1.0,70,0.00,,,0.00,Wunderground v.1.15,2013-11-21 16:55:00,
2013-11-21 12:00:00,54.2,44.6,30.45,SSW,198,1.0,2.0,70,0.00,,,0.00,Wunderground v.1.15,2013-11-21 17:00:00,
2013-11-21 12:10:00,54.3,45.1,30.45,SSW,200,1.0,2.0,71,0.00,,,0.00,Wunderground v.1.15,2013-11-21 17:10:00,
2013-11-21 12:15:00,54.3,45.1,30.44,SE,146,1.0,2.0,71,0.00,,,0.00,Wunderground v.1.15,2013-11-21 17:15:00,
2013-11-21 12:25:00,55.6,46.0,30.44,South,188,1.0,1.0,70,0.00,,,0.00,Wunderground v.1.15,2013-11-21 17:25:00,
2013-11-21 12:30:00,55.9,45.9,30.44,South,169,1.0,2.0,69,0.00,,,0.00,Wunderground v.1.15,2013-11-21 17:30:00,
2013-11-21 12:35:00,56.2,46.2,30.44,SSW,197,1.0,3.0,69,0.00,,,0.00,Wunderground v.1.15,2013-11-21 17:35:00,
2013-11-21 12:40:00,56.2,46.2,30.43,SSW,197,1.0,1.0,69,0.00,,,0.00,Wunderground v.1.15,2013-11-21 17:40:00,
2013-11-21 12:45:00,56.4,46.4,30.43,South,178,1.0,1.0,69,0.00,,,0.00,Wunderground v.1.15,2013-11-21 17:45:00,
2013-11-21 12:55:00,56.7,46.6,30.42,SSW,209,1.0,2.0,69,0.00,,,0.00,Wunderground v.1.15,2013-11-21 17:55:00,
2013-11-21 13:00:00,56.7,46.3,30.42,SSW,209,1.0,1.0,68,0.00,,,0.00,Wunderground v.1.15,2013-11-21 18:00:00,
2013-11-21 13:10:00,57.3,46.8,30.42,SSW,210,1.0,3.0,68,0.00,,,0.00,Wunderground v.1.15,2013-11-21 18:10:00,
2013-11-21 13:15:00,57.3,47.2,30.42,SSW,210,1.0,3.0,69,0.00,,,0.00,Wunderground v.1.15,2013-11-21 18:15:00,
2013-11-21 13:25:00,57.6,47.1,30.41,SW,225,1.0,2.0,68,0.00,,,0.00,Wunderground v.1.15,2013-11-21 18:25:00,
2013-11-21 13:35:00,58.0,47.1,30.41,SW,225,1.0,1.0,67,0.00,,,0.00,Wunderground v.1.15,2013-11-21 18:35:00,
2013-11-21 13:40:00,58.3,47.8,30.41,SW,217,1.0,1.0,68,0.00,,,0.00,Wunderground v.1.15,2013-11-21 18:40:00,
2013-11-21 13:45:00,58.8,47.9,30.40,SW,217,1.0,1.0,67,0.00,,,0.00,Wunderground v.1.15,2013-11-21 18:45:00,
2013-11-21 13:55:00,59.7,47.9,30.40,South,174,0.0,2.0,65,0.00,,,0.00,Wunderground v.1.15,2013-11-21 18:55:00,
2013-11-21 14:00:00,60.0,48.2,30.39,South,181,1.0,1.0,65,0.00,,,0.00,Wunderground v.1.15,2013-11-21 19:00:00,
2013-11-21 14:05:00,59.9,47.7,30.39,South,181,1.0,1.0,64,0.00,,,0.00,Wunderground v.1.15,2013-11-21 19:05:00,
2013-11-21 14:10:00,60.3,47.6,30.39,South,182,1.0,2.0,63,0.00,,,0.00,Wunderground v.1.15,2013-11-21 19:10:00,
2013-11-21 14:15:00,61.2,48.1,30.39,South,182,1.0,2.0,62,0.00,,,0.00,Wunderground v.1.15,2013-11-21 19:15:00,
2013-11-21 14:25:00,61.3,47.7,30.38,SSW,211,1.0,2.0,61,0.00,,,0.00,Wunderground v.1.15,2013-11-21 19:25:00,
2013-11-21 14:30:00,61.5,47.9,30.38,South,182,1.0,1.0,61,0.00,,,0.00,Wunderground v.1.15,2013-11-21 19:30:00,
2013-11-21 14:35:00,61.8,48.2,30.38,South,186,1.0,2.0,61,0.00,,,0.00,Wunderground v.1.15,2013-11-21 19:35:00,
2013-11-21 14:40:00,61.5,47.9,30.37,South,185,1.0,1.0,61,0.00,,,0.00,Wunderground v.1.15,2013-11-21 19:40:00,
2013-11-21 14:50:00,61.4,48.3,30.37,South,171,0.0,1.0,62,0.00,,,0.00,Wunderground v.1.15,2013-11-21 19:50:00,
2013-11-21 14:55:00,61.6,48.4,30.37,South,171,1.0,1.0,62,0.00,,,0.00,Wunderground v.1.15,2013-11-21 19:55:00,
2013-11-21 15:00:00,61.6,48.4,30.37,SE,145,1.0,1.0,62,0.00,,,0.00,Wunderground v.1.15,2013-11-21 20:00:00,
2013-11-21 15:10:00,61.6,48.4,30.37,South,174,0.0,0.0,62,0.00,,,0.00,Wunderground v.1.15,2013-11-21 20:10:00,
2013-11-21 15:15:00,60.9,48.2,30.37,South,190,1.0,1.0,63,0.00,,,0.00,Wunderground v.1.15,2013-11-21 20:15:00,
2013-11-21 15:20:00,60.7,48.0,30.37,South,178,1.0,1.0,63,0.00,,,0.00,Wunderground v.1.15,2013-11-21 20:20:00,
2013-11-21 15:30:00,60.3,48.1,30.37,NE,55,0.0,0.0,64,0.00,,,0.00,Wunderground v.1.15,2013-11-21 20:30:00,
2013-11-21 15:35:00,60.5,48.7,30.38,ESE,106,0.0,0.0,65,0.00,,,0.00,Wunderground v.1.15,2013-11-21 20:35:00,
2013-11-21 15:40:00,60.7,49.3,30.37,ENE,72,0.0,0.0,66,0.00,,,0.00,Wunderground v.1.15,2013-11-21 20:40:00,
2013-11-21 15:45:00,60.9,48.6,30.37,ENE,59,0.0,1.0,64,0.00,,,0.00,Wunderground v.1.15,2013-11-21 20:45:00,
2013-11-21 15:55:00,62.0,49.3,30.37,East,83,2.0,3.0,63,0.00,,,0.00,Wunderground v.1.15,2013-11-21 20:55:00,
2013-11-21 16:00:00,62.6,49.4,30.37,ENE,59,3.0,3.0,62,0.00,,,0.00,Wunderground v.1.15,2013-11-21 21:00:00,
2013-11-21 16:10:00,62.7,49.5,30.37,NE,43,3.0,4.0,62,0.00,,,0.00,Wunderground v.1.15,2013-11-21 21:10:00,
2013-11-21 16:15:00,62.7,49.5,30.37,ENE,72,4.0,5.0,62,0.00,,,0.00,Wunderground v.1.15,2013-11-21 21:15:00,
2013-11-21 16:20:00,62.6,49.4,30.37,NNE,21,4.0,5.0,62,0.00,,,0.00,Wunderground v.1.15,2013-11-21 21:20:00,
2013-11-21 16:25:00,62.5,49.3,30.37,NE,36,4.0,5.0,62,0.00,,,0.00,Wunderground v.1.15,2013-11-21 21:25:00,
2013-11-21 16:30:00,62.2,49.4,30.37,NNE,24,4.0,4.0,63,0.00,,,0.00,Wunderground v.1.15,2013-11-21 21:30:00,
2013-11-21 16:40:00,61.7,49.4,30.38,East,87,2.0,2.0,64,0.00,,,0.00,Wunderground v.1.15,2013-11-21 21:40:00,
2013-11-21 16:45:00,61.4,49.5,30.38,NE,40,3.0,3.0,65,0.00,,,0.00,Wunderground v.1.15,2013-11-21 21:45:00,
2013-11-21 16:55:00,61.3,49.8,30.38,ESE,103,3.0,4.0,66,0.00,,,0.00,Wunderground v.1.15,2013-11-21 21:55:00,
2013-11-21 17:00:00,61.1,49.7,30.38,ENE,67,4.0,4.0,66,0.00,,,0.00,Wunderground v.1.15,2013-11-21 22:00:00,
2013-11-21 17:10:00,60.8,49.8,30.38,ENE,69,3.0,4.0,67,0.00,,,0.00,Wunderground v.1.15,2013-11-21 22:10:00,
2013-11-21 17:15:00,60.5,49.9,30.38,NNE,25,2.0,4.0,68,0.00,,,0.00,Wunderground v.1.15,2013-11-21 22:15:00,
2013-11-21 17:25:00,60.1,49.9,30.38,NNW,342,2.0,3.0,69,0.00,,,0.00,Wunderground v.1.15,2013-11-21 22:25:00,
2013-11-21 17:30:00,59.8,49.6,30.38,East,80,2.0,4.0,69,0.00,,,0.00,Wunderground v.1.15,2013-11-21 22:30:00,
2013-11-21 17:40:00,59.6,49.8,30.39,NE,38,2.0,2.0,70,0.00,,,0.00,Wunderground v.1.15,2013-11-21 22:40:00,
2013-11-21 17:45:00,59.2,49.8,30.39,NE,41,1.0,2.0,71,0.00,,,0.00,Wunderground v.1.15,2013-11-21 22:45:00,
2013-11-21 17:50:00,58.4,49.4,30.39,NE,41,0.0,0.0,72,0.00,,,0.00,Wunderground v.1.15,2013-11-21 22:50:00,
2013-11-21 17:55:00,57.9,49.3,30.39,NE,41,0.0,0.0,73,0.00,,,0.00,Wunderground v.1.15,2013-11-21 22:55:00,
2013-11-21 18:00:00,57.6,49.4,30.39,NE,41,0.0,0.0,74,0.00,,,0.00,Wunderground v.1.15,2013-11-21 23:00:00,
2013-11-21 18:10:00,57.0,49.2,30.39,NE,41,0.0,0.0,75,0.00,,,0.00,Wunderground v.1.15,2013-11-21 23:10:00,
2013-11-21 18:20:00,56.5,49.0,30.39,NE,41,0.0,0.0,76,0.00,,,0.00,Wunderground v.1.15,2013-11-21 23:20:00,
2013-11-21 18:25:00,56.2,49.1,30.39,ESE,111,0.0,0.0,77,0.00,,,0.00,Wunderground v.1.15,2013-11-21 23:25:00,
2013-11-21 18:30:00,56.1,49.0,30.39,ESE,111,0.0,0.0,77,0.00,,,0.00,Wunderground v.1.15,2013-11-21 23:30:00,
2013-11-21 18:40:00,55.8,49.0,30.39,SSW,198,0.0,0.0,78,0.00,,,0.00,Wunderground v.1.15,2013-11-21 23:40:00,
2013-11-21 18:45:00,55.4,48.7,30.39,SSW,198,0.0,0.0,78,0.00,,,0.00,Wunderground v.1.15,2013-11-21 23:45:00,
2013-11-21 18:50:00,55.2,48.8,30.39,SSW,199,0.0,0.0,79,0.00,,,0.00,Wunderground v.1.15,2013-11-21 23:50:00,
2013-11-21 18:55:00,55.0,48.9,30.39,SSW,199,0.0,0.0,80,0.00,,,0.00,Wunderground v.1.15,2013-11-21 23:55:00,
2013-11-21 19:00:00,55.0,48.9,30.39,SSW,199,0.0,0.0,80,0.00,,,0.00,Wunderground v.1.15,2013-11-22 00:00:00,
2013-11-21 19:10:00,54.9,49.2,30.38,SSW,199,0.0,0.0,81,0.00,,,0.00,Wunderground v.1.15,2013-11-22 00:10:00,
2013-11-21 19:15:00,54.8,48.7,30.38,SSW,199,0.0,0.0,80,0.00,,,0.00,Wunderground v.1.15,2013-11-22 00:15:00,
2013-11-21 19:25:00,54.4,48.7,30.38,SSW,206,0.0,0.0,81,0.00,,,0.00,Wunderground v.1.15,2013-11-22 00:25:00,
2013-11-21 19:35:00,53.8,48.1,30.38,SSW,206,0.0,0.0,81,0.00,,,0.00,Wunderground v.1.15,2013-11-22 00:35:00,
2013-11-21 19:40:00,53.4,48.0,30.38,SSW,206,0.0,0.0,82,0.00,,,0.00,Wunderground v.1.15,2013-11-22 00:40:00,
2013-11-21 19:50:00,52.8,47.8,30.38,SSW,206,0.0,0.0,83,0.00,,,0.00,Wunderground v.1.15,2013-11-22 00:50:00,
2013-11-21 19:55:00,52.6,47.9,30.38,SSW,206,0.0,0.0,84,0.00,,,0.00,Wunderground v.1.15,2013-11-22 00:55:00,
2013-11-21 20:00:00,52.3,47.6,30.38,SSW,206,0.0,0.0,84,0.00,,,0.00,Wunderground v.1.15,2013-11-22 01:00:00,
2013-11-21 20:10:00,51.8,47.4,30.38,SSW,206,0.0,0.0,85,0.00,,,0.00,Wunderground v.1.15,2013-11-22 01:10:00,
2013-11-21 20:15:00,51.6,47.2,30.38,SSW,206,0.0,0.0,85,0.00,,,0.00,Wunderground v.1.15,2013-11-22 01:15:00,
2013-11-21 20:20:00,51.3,47.3,30.38,SSW,206,0.0,0.0,86,0.00,,,0.00,Wunderground v.1.15,2013-11-22 01:20:00,
2013-11-21 20:25:00,51.2,47.2,30.38,SSW,206,0.0,0.0,86,0.00,,,0.00,Wunderground v.1.15,2013-11-22 01:25:00,
2013-11-21 20:30:00,51.0,47.0,30.38,SSW,206,0.0,0.0,86,0.00,,,0.00,Wunderground v.1.15,2013-11-22 01:30:00,
2013-11-21 20:40:00,50.7,47.0,30.38,SSW,206,0.0,0.0,87,0.00,,,0.00,Wunderground v.1.15,2013-11-22 01:40:00,
2013-11-21 20:45:00,50.6,46.9,30.38,SSW,206,0.0,0.0,87,0.00,,,0.00,Wunderground v.1.15,2013-11-22 01:45:00,
2013-11-21 20:55:00,50.3,46.6,30.39,SSW,206,0.0,0.0,87,0.00,,,0.00,Wunderground v.1.15,2013-11-22 01:55:00,
2013-11-21 21:00:00,50.1,46.4,30.39,SSW,206,0.0,0.0,87,0.00,,,0.00,Wunderground v.1.15,2013-11-22 02:00:00,
2013-11-21 21:10:00,50.0,46.6,30.39,SSW,206,0.0,0.0,88,0.00,,,0.00,Wunderground v.1.15,2013-11-22 02:10:00,
2013-11-21 21:15:00,49.9,46.5,30.39,SSW,206,0.0,0.0,88,0.00,,,0.00,Wunderground v.1.15,2013-11-22 02:15:00,
2013-11-21 21:20:00,49.9,46.5,30.39,SSW,206,0.0,0.0,88,0.00,,,0.00,Wunderground v.1.15,2013-11-22 02:20:00,
2013-11-21 21:25:00,49.8,46.4,30.39,SSW,206,0.0,0.0,88,0.00,,,0.00,Wunderground v.1.15,2013-11-22 02:25:00,
2013-11-21 21:30:00,49.7,46.3,30.39,SSW,206,0.0,0.0,88,0.00,,,0.00,Wunderground v.1.15,2013-11-22 02:30:00,
2013-11-21 21:40:00,49.6,46.2,30.40,SSW,206,0.0,0.0,88,0.00,,,0.00,Wunderground v.1.15,2013-11-22 02:40:00,
2013-11-21 21:45:00,49.6,46.2,30.40,SSW,206,0.0,0.0,88,0.00,,,0.00,Wunderground v.1.15,2013-11-22 02:45:00,
2013-11-21 21:55:00,49.7,46.6,30.40,SSW,206,0.0,0.0,89,0.00,,,0.00,Wunderground v.1.15,2013-11-22 02:55:00,
2013-11-21 22:00:00,49.7,46.3,30.40,SSW,206,0.0,0.0,88,0.00,,,0.00,Wunderground v.1.15,2013-11-22 03:00:00,
2013-11-21 22:05:00,49.9,46.5,30.40,SSW,206,0.0,0.0,88,0.00,,,0.00,Wunderground v.1.15,2013-11-22 03:05:00,
2013-11-21 22:10:00,49.9,46.5,30.40,SSW,206,0.0,0.0,88,0.00,,,0.00,Wunderground v.1.15,2013-11-22 03:10:00,
2013-11-21 22:15:00,50.0,46.6,30.40,SSW,206,0.0,0.0,88,0.00,,,0.00,Wunderground v.1.15,2013-11-22 03:15:00,
2013-11-21 22:25:00,50.2,46.8,30.41,SSW,206,0.0,0.0,88,0.00,,,0.00,Wunderground v.1.15,2013-11-22 03:25:00,
2013-11-21 22:30:00,50.5,47.1,30.41,SSW,206,0.0,0.0,88,0.00,,,0.00,Wunderground v.1.15,2013-11-22 03:30:00,
2013-11-21 22:40:00,50.7,47.3,30.41,SSW,206,0.0,0.0,88,0.00,,,0.00,Wunderground v.1.15,2013-11-22 03:40:00,
2013-11-21 22:45:00,50.8,47.4,30.41,SSW,206,0.0,0.0,88,0.00,,,0.00,Wunderground v.1.15,2013-11-22 03:45:00,
2013-11-21 22:55:00,50.8,47.4,30.41,SSW,206,0.0,0.0,88,0.00,,,0.00,Wunderground v.1.15,2013-11-22 03:55:00,
2013-11-21 23:00:00,50.9,47.5,30.40,SSW,206,0.0,0.0,88,0.00,,,0.00,Wunderground v.1.15,2013-11-22 04:00:00,
2013-11-21 23:05:00,50.9,47.5,30.40,SSW,206,0.0,0.0,88,0.00,,,0.00,Wunderground v.1.15,2013-11-22 04:05:00,
2013-11-21 23:10:00,50.9,47.5,30.40,SSW,206,0.0,0.0,88,0.00,,,0.00,Wunderground v.1.15,2013-11-22 04:10:00,
2013-11-21 23:15:00,50.8,47.4,30.40,SSW,206,0.0,0.0,88,0.00,,,0.00,Wunderground v.1.15,2013-11-22 04:15:00,
2013-11-21 23:25:00,50.8,47.4,30.40,SSW,206,0.0,0.0,88,0.00,,,0.00,Wunderground v.1.15,2013-11-22 04:25:00,
2013-11-21 23:30:00,50.8,47.4,30.40,SSW,206,0.0,0.0,88,0.00,,,0.00,Wunderground v.1.15,2013-11-22 04:30:00,
2013-11-21 23:40:00,50.9,47.5,30.40,SSW,206,0.0,0.0,88,0.00,,,0.00,Wunderground v.1.15,2013-11-22 04:40:00,
2013-11-21 23:45:00,51.0,47.6,30.39,SSW,206,0.0,0.0,88,0.00,,,0.00,Wunderground v.1.15,2013-11-22 04:45:00,
2013-11-21 23:50:00,51.0,47.6,30.39,SSW,206,0.0,0.0,88,0.00,,,0.00,Wunderground v.1.15,2013-11-22 04:50:00,
2013-11-21 23:55:00,51.0,47.6,30.39,SSW,206,0.0,0.0,88,0.00,,,0.00,Wunderground v.1.15,2013-11-22 04:55:00,